createdAt,value
2023-05-14T00:00:44.598Z,4.60
2023-05-14T00:01:48.482Z,4.20
2023-05-14T00:02:52.305Z,3.83
2023-05-14T00:03:55.807Z,3.60
2023-05-14T00:04:59.391Z,4.03
2023-05-14T00:06:02.988Z,2.92
2023-05-14T00:07:06.226Z,3.35
2023-05-14T00:08:09.625Z,4.40
2023-05-14T00:09:13.648Z,4.00
2023-05-14T00:10:18.169Z,6.07
2023-05-14T00:11:21.909Z,4.30
2023-05-14T00:12:25.438Z,4.05
2023-05-14T00:13:28.713Z,4.70
2023-05-14T00:14:32.003Z,3.88
2023-05-14T00:15:35.520Z,3.30
2023-05-14T00:16:39.298Z,3.53
2023-05-14T00:17:43.504Z,3.78
2023-05-14T00:18:47.043Z,3.50
2023-05-14T00:19:50.678Z,3.38
2023-05-14T00:20:55.290Z,4.22
2023-05-14T00:21:58.755Z,5.00
2023-05-14T00:23:02.234Z,3.90
2023-05-14T00:24:05.720Z,3.95
2023-05-14T00:25:09.675Z,3.78
2023-05-14T00:26:13.252Z,3.83
2023-05-14T00:27:17.385Z,3.70
2023-05-14T00:28:20.764Z,3.83
2023-05-14T00:29:24.894Z,4.72
2023-05-14T00:30:28.189Z,4.32
2023-05-14T00:31:31.289Z,4.47
2023-05-14T00:32:34.616Z,4.35
2023-05-14T00:33:37.606Z,3.95
2023-05-14T00:34:41.355Z,3.97
2023-05-14T00:35:45.025Z,4.47
2023-05-14T00:36:48.578Z,4.18
2023-05-14T00:37:51.896Z,3.45
2023-05-14T00:38:55.124Z,3.22
2023-05-14T00:39:59.025Z,4.65
2023-05-14T00:41:02.735Z,3.85
2023-05-14T00:42:06.982Z,4.03
2023-05-14T00:43:10.426Z,4.80
2023-05-14T00:44:14.186Z,4.72
2023-05-14T00:45:17.937Z,4.65
2023-05-14T00:46:21.142Z,5.00
2023-05-14T00:47:24.242Z,4.82
2023-05-14T00:48:27.661Z,4.70
2023-05-14T00:49:31.556Z,4.68
2023-05-14T00:50:35.178Z,4.18
2023-05-14T00:51:38.591Z,4.47
2023-05-14T00:52:42.324Z,4.03
2023-05-14T00:53:46.757Z,3.78
2023-05-14T00:54:50.452Z,3.47
2023-05-14T00:55:54.115Z,3.72
2023-05-14T00:56:57.904Z,4.78
2023-05-14T00:58:01.394Z,4.88
2023-05-14T00:59:05.103Z,3.97
2023-05-14T01:00:09.829Z,4.70
2023-05-14T01:01:16.418Z,4.97
2023-05-14T01:02:19.770Z,4.38
2023-05-14T01:03:23.755Z,4.68
2023-05-14T01:04:27.709Z,4.55
2023-05-14T01:05:41.418Z,5.07
2023-05-14T01:06:53.292Z,8.63
2023-05-14T01:08:07.742Z,8.10
2023-05-14T01:09:51.342Z,9.52
2023-05-14T01:11:18.087Z,10.48
2023-05-14T01:12:41.641Z,9.93
2023-05-14T01:14:15.390Z,8.75
2023-05-14T01:15:22.901Z,7.15
2023-05-14T01:16:27.881Z,7.55
2023-05-14T01:17:33.257Z,6.35
2023-05-14T01:18:37.224Z,6.05
2023-05-14T01:19:41.735Z,6.50
2023-05-14T01:20:46.240Z,6.93
2023-05-14T01:21:49.717Z,5.85
2023-05-14T01:22:54.107Z,6.38
2023-05-14T01:23:57.606Z,5.78
2023-05-14T01:25:01.335Z,6.18
2023-05-14T01:26:05.468Z,5.50
2023-05-14T01:27:32.938Z,5.22
2023-05-14T01:28:36.942Z,5.22
2023-05-14T01:29:41.652Z,5.47
2023-05-14T01:30:58.515Z,6.30
2023-05-14T01:32:02.328Z,6.25
2023-05-14T01:33:12.739Z,5.30
2023-05-14T01:34:20.802Z,5.70
2023-05-14T01:35:27.949Z,5.88
2023-05-14T01:36:31.827Z,6.22
2023-05-14T01:37:35.073Z,4.70
2023-05-14T01:38:38.819Z,5.65
2023-05-14T01:39:42.485Z,5.32
2023-05-14T01:40:46.635Z,5.05
2023-05-14T01:41:50.603Z,5.47
2023-05-14T01:42:54.593Z,5.15
2023-05-14T01:43:57.857Z,5.60
2023-05-14T01:45:01.320Z,5.15
2023-05-14T01:46:05.844Z,5.03
2023-05-14T01:47:09.455Z,5.15
2023-05-14T01:48:12.510Z,5.82
2023-05-14T01:49:18.974Z,5.45
2023-05-14T01:50:22.459Z,5.57
2023-05-14T01:51:25.924Z,5.55
2023-05-14T01:52:28.885Z,5.72
2023-05-14T01:53:31.956Z,5.60
2023-05-14T01:54:35.226Z,4.82
2023-05-14T01:55:39.243Z,5.68
2023-05-14T01:56:42.747Z,6.97
2023-05-14T01:57:46.206Z,4.80
2023-05-14T01:58:49.819Z,5.40
2023-05-14T01:59:53.373Z,5.90
2023-05-14T02:00:57.011Z,5.38
2023-05-14T02:02:00.480Z,5.47
2023-05-14T02:03:04.747Z,6.30
2023-05-14T02:04:08.207Z,5.35
2023-05-14T02:05:12.921Z,5.75
2023-05-14T02:06:15.942Z,5.82
2023-05-14T02:07:19.002Z,5.70
2023-05-14T02:08:22.018Z,6.40
2023-05-14T02:09:25.735Z,5.13
2023-05-14T02:10:29.088Z,5.93
2023-05-14T02:11:31.929Z,6.10
2023-05-14T02:12:35.446Z,5.93
2023-05-14T02:13:38.846Z,6.65
2023-05-14T02:14:41.764Z,7.50
2023-05-14T02:15:45.028Z,7.20
2023-05-14T02:16:48.247Z,7.55
2023-05-14T02:17:51.947Z,7.43
2023-05-14T02:18:55.713Z,7.78
2023-05-14T02:19:59.331Z,7.32
2023-05-14T02:21:02.552Z,7.43
2023-05-14T02:22:06.257Z,8.32
2023-05-14T02:23:10.448Z,8.57
2023-05-14T02:24:14.022Z,9.00
2023-05-14T02:25:17.027Z,7.88
2023-05-14T02:26:20.805Z,7.60
2023-05-14T02:27:24.220Z,8.05
2023-05-14T02:28:27.946Z,7.75
2023-05-14T02:29:31.567Z,7.47
2023-05-14T02:30:34.593Z,8.50
2023-05-14T02:31:38.482Z,8.20
2023-05-14T02:32:42.522Z,8.77
2023-05-14T02:33:46.379Z,7.68
2023-05-14T02:34:49.795Z,6.60
2023-05-14T02:35:53.271Z,8.25
2023-05-14T02:36:56.756Z,8.30
2023-05-14T02:38:00.159Z,8.80
2023-05-14T02:39:05.378Z,8.02
2023-05-14T02:40:10.032Z,7.20
2023-05-14T02:41:12.872Z,7.82
2023-05-14T02:42:16.253Z,7.63
2023-05-14T02:43:19.885Z,6.95
2023-05-14T02:44:23.331Z,8.85
2023-05-14T02:45:26.651Z,8.77
2023-05-14T02:46:31.549Z,8.88
2023-05-14T02:47:37.561Z,8.13
2023-05-14T02:48:41.912Z,9.35
2023-05-14T02:49:45.715Z,8.52
2023-05-14T02:50:50.581Z,8.82
2023-05-14T02:51:55.316Z,8.45
2023-05-14T02:52:58.525Z,9.25
2023-05-14T02:54:01.768Z,9.30
2023-05-14T02:55:06.120Z,9.07
2023-05-14T02:56:10.069Z,9.40
2023-05-14T02:57:13.292Z,9.73
2023-05-14T02:58:16.896Z,9.18
2023-05-14T02:59:20.518Z,12.55
2023-05-14T03:00:24.627Z,15.68
2023-05-14T03:01:28.570Z,15.68
2023-05-14T03:02:32.369Z,16.85
2023-05-14T03:03:36.657Z,17.13
2023-05-14T03:04:40.285Z,16.00
2023-05-14T03:05:44.017Z,14.50
2023-05-14T03:06:47.676Z,14.32
2023-05-14T03:07:52.335Z,13.88
2023-05-14T03:08:55.908Z,12.27
2023-05-14T03:10:00.804Z,11.68
2023-05-14T03:11:04.419Z,9.95
2023-05-14T03:12:08.561Z,8.00
2023-05-14T03:13:12.060Z,8.25
2023-05-14T03:14:15.075Z,7.57
2023-05-14T03:15:18.268Z,7.65
2023-05-14T03:16:21.301Z,8.20
2023-05-14T03:17:25.123Z,7.95
2023-05-14T03:18:31.172Z,8.13
2023-05-14T03:19:34.610Z,7.80
2023-05-14T03:20:38.243Z,7.57
2023-05-14T03:21:42.800Z,6.65
2023-05-14T03:22:46.558Z,7.47
2023-05-14T03:23:50.383Z,5.68
2023-05-14T03:24:55.380Z,5.90
2023-05-14T03:25:59.206Z,6.72
2023-05-14T03:27:03.038Z,6.00
2023-05-14T03:28:06.810Z,6.43
2023-05-14T03:29:11.728Z,6.28
2023-05-14T03:30:16.909Z,6.10
2023-05-14T03:31:19.917Z,6.25
2023-05-14T03:32:23.386Z,6.47
2023-05-14T03:33:26.897Z,6.57
2023-05-14T03:34:30.261Z,7.03
2023-05-14T03:35:33.552Z,6.10
2023-05-14T03:36:40.371Z,6.63
2023-05-14T03:37:43.512Z,5.38
2023-05-14T03:38:46.932Z,6.38
2023-05-14T03:39:51.488Z,6.07
2023-05-14T03:40:54.491Z,5.88
2023-05-14T03:41:59.263Z,6.47
2023-05-14T03:43:02.727Z,6.90
2023-05-14T03:44:07.270Z,5.80
2023-05-14T03:45:11.003Z,6.60
2023-05-14T03:46:14.842Z,6.25
2023-05-14T03:47:18.201Z,5.90
2023-05-14T03:48:21.650Z,6.18
2023-05-14T03:49:26.154Z,5.50
2023-05-14T03:50:29.375Z,5.88
2023-05-14T03:51:32.426Z,6.03
2023-05-14T03:52:36.117Z,5.72
2023-05-14T03:53:39.324Z,6.25
2023-05-14T03:54:43.176Z,5.93
2023-05-14T03:55:46.851Z,4.97
2023-05-14T03:56:50.382Z,6.07
2023-05-14T03:57:53.694Z,6.38
2023-05-14T03:58:57.293Z,6.47
2023-05-14T04:00:00.702Z,6.88
2023-05-14T04:01:03.676Z,6.65
2023-05-14T04:02:07.683Z,6.13
2023-05-14T04:03:11.657Z,6.03
2023-05-14T04:04:15.158Z,5.68
2023-05-14T04:05:18.297Z,5.07
2023-05-14T04:06:22.188Z,6.10
2023-05-14T04:07:26.058Z,5.25
2023-05-14T04:08:29.537Z,6.70
2023-05-14T04:09:33.175Z,7.03
2023-05-14T04:10:36.926Z,5.38
2023-05-14T04:11:40.659Z,5.82
2023-05-14T04:12:43.929Z,5.43
2023-05-14T04:13:47.083Z,5.28
2023-05-14T04:14:51.098Z,5.57
2023-05-14T04:15:54.122Z,6.03
2023-05-14T04:16:58.995Z,6.40
2023-05-14T04:18:03.632Z,5.45
2023-05-14T04:19:06.930Z,5.68
2023-05-14T04:20:11.253Z,7.18
2023-05-14T04:21:14.727Z,7.45
2023-05-14T04:22:17.815Z,9.15
2023-05-14T04:23:21.149Z,8.73
2023-05-14T04:24:24.837Z,7.75
2023-05-14T04:25:28.429Z,8.30
2023-05-14T04:26:31.469Z,8.02
2023-05-14T04:27:35.327Z,7.97
2023-05-14T04:28:38.634Z,8.45
2023-05-14T04:29:41.965Z,8.65
2023-05-14T04:30:46.252Z,6.95
2023-05-14T04:31:50.672Z,7.70
2023-05-14T04:32:53.766Z,7.15
2023-05-14T04:33:57.199Z,6.72
2023-05-14T04:35:00.496Z,6.90
2023-05-14T04:36:03.539Z,7.45
2023-05-14T04:37:07.362Z,6.88
2023-05-14T04:38:12.290Z,6.15
2023-05-14T04:39:15.578Z,6.63
2023-05-14T04:40:19.861Z,6.10
2023-05-14T04:41:23.511Z,6.22
2023-05-14T04:42:26.963Z,5.88
2023-05-14T04:43:30.722Z,5.55
2023-05-14T04:44:35.076Z,6.65
2023-05-14T04:45:38.763Z,6.25
2023-05-14T04:46:42.465Z,5.65
2023-05-14T04:47:47.307Z,6.30
2023-05-14T04:48:51.329Z,5.57
2023-05-14T04:49:54.456Z,6.43
2023-05-14T04:50:57.415Z,6.55
2023-05-14T04:52:00.602Z,6.25
2023-05-14T04:53:04.301Z,6.03
2023-05-14T04:54:07.743Z,6.07
2023-05-14T04:55:11.341Z,5.93
2023-05-14T04:56:14.898Z,6.15
2023-05-14T04:57:18.084Z,5.95
2023-05-14T04:58:21.938Z,6.07
2023-05-14T04:59:25.764Z,5.85
2023-05-14T05:00:29.709Z,6.07
2023-05-14T05:01:33.023Z,5.00
2023-05-14T05:02:36.808Z,5.22
2023-05-14T05:03:40.147Z,5.60
2023-05-14T05:04:43.314Z,6.13
2023-05-14T05:05:46.982Z,6.28
2023-05-14T05:06:50.731Z,5.60
2023-05-14T05:07:54.349Z,4.57
2023-05-14T05:08:59.067Z,5.50
2023-05-14T05:10:04.431Z,6.85
2023-05-14T05:11:07.836Z,7.30
2023-05-14T05:12:11.045Z,8.57
2023-05-14T05:13:14.464Z,9.40
2023-05-14T05:14:18.327Z,7.93
2023-05-14T05:15:22.366Z,7.82
2023-05-14T05:16:26.834Z,7.15
2023-05-14T05:17:30.876Z,8.02
2023-05-14T05:18:34.174Z,7.32
2023-05-14T05:19:43.812Z,7.45
2023-05-14T05:20:47.882Z,6.65
2023-05-14T05:21:51.695Z,6.13
2023-05-14T05:22:54.862Z,6.32
2023-05-14T05:23:58.530Z,7.97
2023-05-14T05:25:02.107Z,7.35
2023-05-14T05:26:05.598Z,6.47
2023-05-14T05:27:08.648Z,6.85
2023-05-14T05:28:11.842Z,7.45
2023-05-14T05:29:15.220Z,6.72
2023-05-14T05:30:18.097Z,6.95
2023-05-14T05:31:21.877Z,6.43
2023-05-14T05:32:25.958Z,6.53
2023-05-14T05:33:29.188Z,7.20
2023-05-14T05:34:32.820Z,6.97
2023-05-14T05:35:35.802Z,7.80
2023-05-14T05:36:38.695Z,6.15
2023-05-14T05:37:43.059Z,5.20
2023-05-14T05:38:46.458Z,5.60
2023-05-14T05:39:49.984Z,5.97
2023-05-14T05:40:53.969Z,7.22
2023-05-14T05:41:56.893Z,6.80
2023-05-14T05:42:59.674Z,6.68
2023-05-14T05:44:03.370Z,6.85
2023-05-14T05:45:07.602Z,6.47
2023-05-14T05:46:11.096Z,5.30
2023-05-14T05:47:14.264Z,6.43
2023-05-14T05:48:17.550Z,6.70
2023-05-14T05:49:20.761Z,6.55
2023-05-14T05:50:25.402Z,6.07
2023-05-14T05:51:29.140Z,5.80
2023-05-14T05:52:32.559Z,6.00
2023-05-14T05:53:36.246Z,6.68
2023-05-14T05:54:40.326Z,6.45
2023-05-14T05:55:43.473Z,6.65
2023-05-14T05:56:47.018Z,6.50
2023-05-14T05:57:50.330Z,6.22
2023-05-14T05:58:53.737Z,6.40
2023-05-14T05:59:57.416Z,6.25
2023-05-14T06:01:01.227Z,6.30
2023-05-14T06:02:04.745Z,5.10
2023-05-14T06:03:08.331Z,5.10
2023-05-14T06:04:11.914Z,4.55
2023-05-14T06:05:15.605Z,4.57
2023-05-14T06:06:19.164Z,4.70
2023-05-14T06:07:22.721Z,4.30
2023-05-14T06:08:26.074Z,4.10
2023-05-14T06:09:29.580Z,3.92
2023-05-14T06:10:35.042Z,4.00
2023-05-14T06:11:38.557Z,3.45
2023-05-14T06:12:42.268Z,3.28
2023-05-14T06:13:45.754Z,3.97
2023-05-14T06:14:49.122Z,3.78
2023-05-14T06:15:52.697Z,4.10
2023-05-14T06:16:55.987Z,4.28
2023-05-14T06:17:59.441Z,3.67
2023-05-14T06:19:03.389Z,3.30
2023-05-14T06:20:08.494Z,3.83
2023-05-14T06:21:11.661Z,4.50
2023-05-14T06:22:15.306Z,4.03
2023-05-14T06:23:18.928Z,4.10
2023-05-14T06:24:22.210Z,4.10
2023-05-14T06:25:25.533Z,3.20
2023-05-14T06:26:28.518Z,4.03
2023-05-14T06:27:31.532Z,3.45
2023-05-14T06:28:35.033Z,3.67
2023-05-14T06:29:39.106Z,3.80
2023-05-14T06:30:42.478Z,3.67
2023-05-14T06:31:46.074Z,3.67
2023-05-14T06:32:49.203Z,3.50
2023-05-14T06:33:52.230Z,3.33
2023-05-14T06:34:55.811Z,4.30
2023-05-14T06:36:05.726Z,3.83
2023-05-14T06:37:10.487Z,4.15
2023-05-14T06:38:14.184Z,3.28
2023-05-14T06:39:17.504Z,4.22
2023-05-14T06:40:21.293Z,3.75
2023-05-14T06:41:25.225Z,4.20
2023-05-14T06:42:28.568Z,3.42
2023-05-14T06:43:31.876Z,4.22
2023-05-14T06:44:35.492Z,4.38
2023-05-14T06:45:38.507Z,3.63
2023-05-14T06:46:42.082Z,3.75
2023-05-14T06:47:45.488Z,3.78
2023-05-14T06:48:49.005Z,3.60
2023-05-14T06:49:52.815Z,3.90
2023-05-14T06:50:56.822Z,3.97
2023-05-14T06:52:00.245Z,3.88
2023-05-14T06:53:03.366Z,4.00
2023-05-14T06:54:06.590Z,3.85
2023-05-14T06:55:09.823Z,3.10
2023-05-14T06:56:14.086Z,3.53
2023-05-14T06:57:17.870Z,3.85
2023-05-14T06:58:21.431Z,3.83
2023-05-14T06:59:24.898Z,3.60
2023-05-14T07:00:28.957Z,3.35
2023-05-14T07:01:32.267Z,3.60
2023-05-14T07:02:36.415Z,4.28
2023-05-14T07:03:40.117Z,3.78
2023-05-14T07:04:43.423Z,4.20
2023-05-14T07:05:47.231Z,4.10
2023-05-14T07:06:50.820Z,3.85
2023-05-14T07:07:53.962Z,4.05
2023-05-14T07:08:57.433Z,3.72
2023-05-14T07:10:01.215Z,3.95
2023-05-14T07:11:04.762Z,4.50
2023-05-14T07:12:08.595Z,3.72
2023-05-14T07:13:11.953Z,3.90
2023-05-14T07:14:15.187Z,3.78
2023-05-14T07:15:18.688Z,4.45
2023-05-14T07:16:21.968Z,3.83
2023-05-14T07:17:25.037Z,3.63
2023-05-14T07:18:28.857Z,3.22
2023-05-14T07:19:32.556Z,3.65
2023-05-14T07:20:36.175Z,3.35
2023-05-14T07:21:39.445Z,3.40
2023-05-14T07:22:42.504Z,3.83
2023-05-14T07:23:45.676Z,3.80
2023-05-14T07:24:48.553Z,3.80
2023-05-14T07:25:52.188Z,4.03
2023-05-14T07:26:57.808Z,3.53
2023-05-14T07:28:01.296Z,4.20
2023-05-14T07:29:04.695Z,3.17
2023-05-14T07:30:09.322Z,3.70
2023-05-14T07:31:12.233Z,3.33
2023-05-14T07:32:15.940Z,4.10
2023-05-14T07:33:19.378Z,3.50
2023-05-14T07:34:23.205Z,3.40
2023-05-14T07:35:26.623Z,3.40
2023-05-14T07:36:29.985Z,4.20
2023-05-14T07:37:33.812Z,3.20
2023-05-14T07:38:37.237Z,3.58
2023-05-14T07:39:42.606Z,3.83
2023-05-14T07:40:46.207Z,3.63
2023-05-14T07:41:50.716Z,4.05
2023-05-14T07:42:53.949Z,4.30
2023-05-14T07:43:57.326Z,3.83
2023-05-14T07:45:00.746Z,4.22
2023-05-14T07:46:04.033Z,4.30
2023-05-14T07:47:09.572Z,3.30
2023-05-14T07:48:13.411Z,3.58
2023-05-14T07:49:16.441Z,3.95
2023-05-14T07:50:20.248Z,4.45
2023-05-14T07:51:23.717Z,4.63
2023-05-14T07:52:26.832Z,3.28
2023-05-14T07:53:30.226Z,3.40
2023-05-14T07:54:34.190Z,3.70
2023-05-14T07:55:37.741Z,3.47
2023-05-14T07:56:41.164Z,4.28
2023-05-14T07:57:44.654Z,3.88
2023-05-14T07:58:47.787Z,4.05
2023-05-14T07:59:51.050Z,3.47
2023-05-14T08:00:54.373Z,4.25
2023-05-14T08:01:58.542Z,4.13
2023-05-14T08:03:02.219Z,3.92
2023-05-14T08:04:05.868Z,4.55
2023-05-14T08:05:10.352Z,3.67
2023-05-14T08:06:13.961Z,3.78
2023-05-14T08:07:18.178Z,3.65
2023-05-14T08:08:21.484Z,3.88
2023-05-14T08:09:24.779Z,3.67
2023-05-14T08:10:28.242Z,3.72
2023-05-14T08:11:31.624Z,4.25
2023-05-14T08:12:34.894Z,3.50
2023-05-14T08:13:38.401Z,3.30
2023-05-14T08:14:42.212Z,3.80
2023-05-14T08:15:45.752Z,3.60
2023-05-14T08:16:49.217Z,3.83
2023-05-14T08:17:52.776Z,4.07
2023-05-14T08:18:56.595Z,4.32
2023-05-14T08:20:00.195Z,3.88
2023-05-14T08:21:04.149Z,4.57
2023-05-14T08:22:07.699Z,4.50
2023-05-14T08:23:11.271Z,3.90
2023-05-14T08:24:15.139Z,4.03
2023-05-14T08:25:18.641Z,4.43
2023-05-14T08:26:22.754Z,4.28
2023-05-14T08:27:27.225Z,4.15
2023-05-14T08:28:30.150Z,4.15
2023-05-14T08:29:33.981Z,4.60
2023-05-14T08:30:37.593Z,4.03
2023-05-14T08:31:41.930Z,3.90
2023-05-14T08:32:45.615Z,3.20
2023-05-14T08:33:48.800Z,3.30
2023-05-14T08:34:52.160Z,4.05
2023-05-14T08:35:55.434Z,3.38
2023-05-14T08:36:58.596Z,4.15
2023-05-14T08:38:01.649Z,4.43
2023-05-14T08:39:04.570Z,3.97
2023-05-14T08:40:09.152Z,3.65
2023-05-14T08:41:12.539Z,3.58
2023-05-14T08:42:15.464Z,3.30
2023-05-14T08:43:20.110Z,3.55
2023-05-14T08:44:33.810Z,2.97
2023-05-14T08:45:37.723Z,3.03
2023-05-14T08:46:40.962Z,3.30
2023-05-14T08:47:44.565Z,2.97
2023-05-14T08:48:49.081Z,2.92
2023-05-14T08:50:10.407Z,2.88
2023-05-14T08:51:14.001Z,2.78
2023-05-14T08:52:18.123Z,2.55
2023-05-14T08:53:21.393Z,3.20
2023-05-14T08:54:26.223Z,2.95
2023-05-14T08:55:29.765Z,2.88
2023-05-14T08:56:34.177Z,3.05
2023-05-14T08:57:38.268Z,3.53
2023-05-14T08:58:41.748Z,3.15
2023-05-14T08:59:45.438Z,2.80
2023-05-14T09:00:49.071Z,2.90
2023-05-14T09:01:55.604Z,2.70
2023-05-14T09:02:58.787Z,2.95
2023-05-14T09:04:07.853Z,2.90
2023-05-14T09:05:11.578Z,3.40
2023-05-14T09:06:14.869Z,2.85
2023-05-14T09:07:18.815Z,2.78
2023-05-14T09:08:22.090Z,2.80
2023-05-14T09:09:25.246Z,2.42
2023-05-14T09:10:28.354Z,2.60
2023-05-14T09:11:31.966Z,3.00
2023-05-14T09:12:35.670Z,2.53
2023-05-14T09:13:40.304Z,2.88
2023-05-14T09:14:44.707Z,2.42
2023-05-14T09:15:47.564Z,2.85
2023-05-14T09:16:51.583Z,2.63
2023-05-14T09:17:55.391Z,2.42
2023-05-14T09:18:58.613Z,2.42
2023-05-14T09:20:01.737Z,2.85
2023-05-14T09:21:05.304Z,2.40
2023-05-14T09:22:13.341Z,2.42
2023-05-14T09:23:16.783Z,2.45
2023-05-14T09:24:24.853Z,2.97
2023-05-14T09:25:29.241Z,2.95
2023-05-14T09:26:33.588Z,2.75
2023-05-14T09:27:37.072Z,2.85
2023-05-14T09:28:43.301Z,2.83
2023-05-14T09:29:46.876Z,3.10
2023-05-14T09:30:53.335Z,2.75
2023-05-14T09:31:57.621Z,2.70
2023-05-14T09:33:01.362Z,2.55
2023-05-14T09:34:04.935Z,2.53
2023-05-14T09:35:33.869Z,2.90
2023-05-14T09:36:37.754Z,3.40
2023-05-14T09:37:45.346Z,2.55
2023-05-14T09:38:48.999Z,2.85
2023-05-14T09:39:52.300Z,2.65
2023-05-14T09:40:55.929Z,2.50
2023-05-14T09:41:59.748Z,3.00
2023-05-14T09:43:03.617Z,2.55
2023-05-14T09:44:06.835Z,2.78
2023-05-14T09:45:11.546Z,2.53
2023-05-14T09:46:14.712Z,2.50
2023-05-14T09:47:17.654Z,2.78
2023-05-14T09:48:20.724Z,2.97
2023-05-14T09:49:24.262Z,2.80
2023-05-14T09:50:27.785Z,2.70
2023-05-14T09:51:32.890Z,2.30
2023-05-14T09:52:36.333Z,2.58
2023-05-14T09:53:40.104Z,2.80
2023-05-14T09:54:43.644Z,2.50
2023-05-14T09:55:47.151Z,2.45
2023-05-14T09:56:50.069Z,2.30
2023-05-14T09:57:53.122Z,2.25
2023-05-14T09:58:56.338Z,2.47
2023-05-14T09:59:59.790Z,2.47
2023-05-14T10:01:03.112Z,2.40
2023-05-14T10:02:06.117Z,2.72
2023-05-14T10:03:09.560Z,2.35
2023-05-14T10:04:12.558Z,2.88
2023-05-14T10:05:17.143Z,2.33
2023-05-14T10:06:21.690Z,2.88
2023-05-14T10:07:28.390Z,2.55
2023-05-14T10:08:34.696Z,2.72
2023-05-14T10:09:38.422Z,2.83
2023-05-14T10:10:42.009Z,2.55
2023-05-14T10:11:46.815Z,2.80
2023-05-14T10:13:00.039Z,2.20
2023-05-14T10:14:08.498Z,2.40
2023-05-14T10:15:18.883Z,2.15
2023-05-14T10:16:30.000Z,2.55
2023-05-14T10:17:34.419Z,2.13
2023-05-14T10:18:42.144Z,2.50
2023-05-14T10:19:51.544Z,2.22
2023-05-14T10:21:02.222Z,2.42
2023-05-14T10:22:07.733Z,2.25
2023-05-14T10:23:11.687Z,2.20
2023-05-14T10:24:14.680Z,2.67
2023-05-14T10:25:18.229Z,2.75
2023-05-14T10:26:23.964Z,2.53
2023-05-14T10:27:27.384Z,2.60
2023-05-14T10:28:31.490Z,2.95
2023-05-14T10:29:35.297Z,2.40
2023-05-14T10:30:46.445Z,2.70
2023-05-14T10:31:56.681Z,2.45
2023-05-14T10:33:10.430Z,2.58
2023-05-14T10:34:33.552Z,2.38
2023-05-14T10:35:58.178Z,2.70
2023-05-14T10:37:21.377Z,2.08
2023-05-14T10:38:39.774Z,2.60
2023-05-14T10:39:46.661Z,2.88
2023-05-14T10:40:51.580Z,2.70
2023-05-14T10:41:56.415Z,2.45
2023-05-14T10:42:59.781Z,2.60
2023-05-14T10:44:08.952Z,2.70
2023-05-14T10:45:14.044Z,2.33
2023-05-14T10:46:17.230Z,2.45
2023-05-14T10:47:20.515Z,2.40
2023-05-14T10:48:24.237Z,2.30
2023-05-14T10:49:42.457Z,2.53
2023-05-14T10:51:54.352Z,2.92
2023-05-14T10:52:58.022Z,2.22
2023-05-14T10:54:02.449Z,2.47
2023-05-14T10:55:10.472Z,2.25
2023-05-14T10:56:14.780Z,2.72
2023-05-14T10:57:19.238Z,2.80
2023-05-14T10:58:22.470Z,2.60
2023-05-14T10:59:29.002Z,2.72
2023-05-14T11:00:34.668Z,2.50
2023-05-14T11:01:37.923Z,2.40
2023-05-14T11:02:42.463Z,1.98
2023-05-14T11:03:47.227Z,2.17
2023-05-14T11:05:11.649Z,2.30
2023-05-14T11:06:15.797Z,2.40
2023-05-14T11:07:20.971Z,2.28
2023-05-14T11:08:26.494Z,2.05
2023-05-14T11:09:30.881Z,2.05
2023-05-14T11:10:34.134Z,2.08
2023-05-14T11:11:37.609Z,2.33
2023-05-14T11:12:42.591Z,1.92
2023-05-14T11:13:46.336Z,2.20
2023-05-14T11:14:49.889Z,1.80
2023-05-14T11:15:53.244Z,2.10
2023-05-14T11:16:56.661Z,1.85
2023-05-14T11:18:00.624Z,3.00
2023-05-14T11:19:04.897Z,2.80
2023-05-14T11:20:09.119Z,2.08
2023-05-14T11:21:12.684Z,1.98
2023-05-14T11:22:16.543Z,1.80
2023-05-14T11:23:20.120Z,1.98
2023-05-14T11:24:23.211Z,1.40
2023-05-14T11:25:26.975Z,1.92
2023-05-14T11:26:30.908Z,1.80
2023-05-14T11:27:38.825Z,1.80
2023-05-14T11:28:42.293Z,1.60
2023-05-14T11:29:47.128Z,2.20
2023-05-14T11:30:54.281Z,1.67
2023-05-14T11:31:57.934Z,2.00
2023-05-14T11:33:02.204Z,1.55
2023-05-14T11:34:07.682Z,1.52
2023-05-14T11:35:11.235Z,1.40
2023-05-14T11:36:15.147Z,1.92
2023-05-14T11:37:18.657Z,1.80
2023-05-14T11:38:22.168Z,1.90
2023-05-14T11:39:25.961Z,1.65
2023-05-14T11:40:29.355Z,1.77
2023-05-14T11:41:32.675Z,1.77
2023-05-14T11:42:36.022Z,2.35
2023-05-14T11:43:39.613Z,1.65
2023-05-14T11:44:45.372Z,1.95
2023-05-14T11:45:53.421Z,1.85
2023-05-14T11:46:57.756Z,3.67
2023-05-14T11:48:01.694Z,2.80
2023-05-14T11:49:07.833Z,2.35
2023-05-14T11:50:12.132Z,2.80
2023-05-14T11:51:15.765Z,2.10
2023-05-14T11:52:20.158Z,2.38
2023-05-14T11:53:27.712Z,1.73
2023-05-14T11:54:30.913Z,2.00
2023-05-14T11:55:37.268Z,1.40
2023-05-14T11:56:40.942Z,1.70
2023-05-14T11:57:44.482Z,1.95
2023-05-14T11:58:50.767Z,1.63
2023-05-14T12:00:00.162Z,1.33
2023-05-14T12:01:03.881Z,1.48
2023-05-14T12:02:09.279Z,1.40
2023-05-14T12:03:12.869Z,1.10
2023-05-14T12:04:16.060Z,1.23
2023-05-14T12:05:20.114Z,1.30
2023-05-14T12:06:23.437Z,1.40
2023-05-14T12:07:30.147Z,0.90
2023-05-14T12:08:33.286Z,1.10
2023-05-14T12:09:50.279Z,1.27
2023-05-14T12:10:56.527Z,1.30
2023-05-14T12:12:00.040Z,1.20
2023-05-14T12:13:08.184Z,1.33
2023-05-14T12:14:31.937Z,1.33
2023-05-14T12:15:35.600Z,1.00
2023-05-14T12:16:40.999Z,1.20
2023-05-14T12:17:44.390Z,1.20
2023-05-14T12:18:47.682Z,1.20
2023-05-14T12:19:52.696Z,1.30
2023-05-14T12:20:56.395Z,1.15
2023-05-14T12:22:01.627Z,1.30
2023-05-14T12:23:05.199Z,1.17
2023-05-14T12:24:18.241Z,1.35
2023-05-14T12:25:21.667Z,1.00
2023-05-14T12:26:25.238Z,1.20
2023-05-14T12:27:29.307Z,1.15
2023-05-14T12:28:33.473Z,1.00
2023-05-14T12:29:41.612Z,1.20
2023-05-14T12:30:44.720Z,1.23
2023-05-14T12:31:49.364Z,1.08
2023-05-14T12:32:54.588Z,1.10
2023-05-14T12:33:58.032Z,1.05
2023-05-14T12:35:04.462Z,1.00
2023-05-14T12:36:20.474Z,0.90
2023-05-14T12:37:25.384Z,0.95
2023-05-14T12:38:29.361Z,1.00
2023-05-14T12:39:34.249Z,1.10
2023-05-14T12:40:37.750Z,1.08
2023-05-14T12:41:41.542Z,1.20
2023-05-14T12:42:44.587Z,1.20
2023-05-14T12:43:48.509Z,1.20
2023-05-14T12:44:51.504Z,1.30
2023-05-14T12:45:54.406Z,1.20
2023-05-14T12:46:58.281Z,1.90
2023-05-14T12:48:01.681Z,1.00
2023-05-14T12:49:04.641Z,1.00
2023-05-14T12:50:08.388Z,1.00
2023-05-14T12:51:12.002Z,1.27
2023-05-14T12:53:21.627Z,1.15
2023-05-14T12:54:25.274Z,1.10
2023-05-14T12:55:28.510Z,0.90
2023-05-14T12:56:32.679Z,1.10
2023-05-14T12:57:36.328Z,1.02
2023-05-14T12:58:39.621Z,1.38
2023-05-14T12:59:42.726Z,1.40
2023-05-14T13:00:46.499Z,1.30
2023-05-14T13:01:49.673Z,1.33
2023-05-14T13:02:52.927Z,1.17
2023-05-14T13:03:57.039Z,1.10
2023-05-14T13:05:03.687Z,1.00
2023-05-14T13:06:07.095Z,1.40
2023-05-14T13:07:10.689Z,1.00
2023-05-14T13:08:18.634Z,1.00
2023-05-14T13:09:22.027Z,1.30
2023-05-14T13:10:25.691Z,1.30
2023-05-14T13:11:31.232Z,1.10
2023-05-14T13:12:34.567Z,1.23
2023-05-14T13:13:38.096Z,1.17
2023-05-14T13:14:41.473Z,1.20
2023-05-14T13:15:47.676Z,1.30
2023-05-14T13:16:51.036Z,1.45
2023-05-14T13:17:54.036Z,1.52
2023-05-14T13:18:57.155Z,1.77
2023-05-14T13:20:00.983Z,1.75
2023-05-14T13:21:06.998Z,1.20
2023-05-14T13:22:10.270Z,1.63
2023-05-14T13:23:14.476Z,1.40
2023-05-14T13:24:18.504Z,1.20
2023-05-14T13:25:22.335Z,1.27
2023-05-14T13:26:28.810Z,1.48
2023-05-14T13:27:32.027Z,1.52
2023-05-14T13:28:35.497Z,1.98
2023-05-14T13:29:39.269Z,1.33
2023-05-14T13:30:42.801Z,1.40
2023-05-14T13:31:45.819Z,1.83
2023-05-14T13:32:49.408Z,1.50
2023-05-14T13:33:52.975Z,1.60
2023-05-14T13:34:56.733Z,1.75
2023-05-14T13:36:00.453Z,1.50
2023-05-14T13:37:04.389Z,1.65
2023-05-14T13:38:08.324Z,1.63
2023-05-14T13:39:15.208Z,1.75
2023-05-14T13:40:18.776Z,1.75
2023-05-14T13:41:22.532Z,2.20
2023-05-14T13:42:26.191Z,1.58
2023-05-14T13:43:32.382Z,1.48
2023-05-14T13:44:36.604Z,1.60
2023-05-14T13:45:40.233Z,1.90
2023-05-14T13:46:44.287Z,1.80
2023-05-14T13:47:48.785Z,1.42
2023-05-14T13:48:53.287Z,1.70
2023-05-14T13:49:57.548Z,2.08
2023-05-14T13:51:01.400Z,1.48
2023-05-14T13:52:04.960Z,1.90
2023-05-14T13:53:07.755Z,1.70
2023-05-14T13:54:11.263Z,1.65
2023-05-14T13:55:15.108Z,2.20
2023-05-14T13:56:18.648Z,1.75
2023-05-14T13:57:22.832Z,2.08
2023-05-14T13:58:26.309Z,1.60
2023-05-14T13:59:29.608Z,1.70
2023-05-14T14:00:32.733Z,2.13
2023-05-14T14:01:36.508Z,1.63
2023-05-14T14:02:40.338Z,1.77
2023-05-14T14:03:43.548Z,1.73
2023-05-14T14:04:47.363Z,2.08
2023-05-14T14:05:51.157Z,2.20
2023-05-14T14:06:54.632Z,1.90
2023-05-14T14:08:07.863Z,1.77
2023-05-14T14:09:22.432Z,1.50
2023-05-14T14:10:25.326Z,1.92
2023-05-14T14:11:28.792Z,2.15
2023-05-14T14:12:32.056Z,1.60
2023-05-14T14:13:35.005Z,2.00
2023-05-14T14:14:38.361Z,2.13
2023-05-14T14:15:41.909Z,1.90
2023-05-14T14:16:45.248Z,1.70
2023-05-14T14:17:49.360Z,2.15
2023-05-14T14:18:52.896Z,2.00
2023-05-14T14:19:56.095Z,1.77
2023-05-14T14:20:59.700Z,1.67